Terminal Aerodrome Forecast
Issued by NWS Binghamton, NY

Home | Current Version | Previous Version | Text Only | Print | Product List | Glossary On
Versions: 1 2 3 4 5 6 7 8 9 10 11 12 13 14 15 16 17
110
FTUS41 KBGM 121738
TAFAVP
TAF
KAVP 121738Z 1218/1318 22010G20KT P6SM SCT040 BKN100
     FM122300 22008KT P6SM BKN050
     FM130900 29015G25KT P6SM -SHSN SCT025 BKN040
      TEMPO 1309/1312 2SM -SHSN BLSN OVC025=

USA.gov is the U.S. government's official web portal to all federal, state and local government web resources and services.